Time;durP1;ratioP1;P1;durP2;ratioP2;P2;SDS_P1;SDS_P2;PMS_P1;PMS_P2;Temp;Humidity;BMP_temperature;BMP_pressure;BME280_temperature;BME280_humidity;BME280_pressure;Samples;Min_cycle;Max_cycle;Signal;HPM_P1;HPM_P2
2022/01/22 00:01:03;;;;;;;17.30;2.22;;;4.90;89.10;;;;;;5101796;28;20049;-86
2022/01/22 00:03:34;;;;;;;12.77;2.33;;;4.90;89.20;;;;;;5094841;28;20806;-85
2022/01/22 00:06:01;;;;;;;20.60;2.85;;;4.90;89.40;;;;;;5104757;27;20087;-85
2022/01/22 00:08:27;;;;;;;23.85;2.30;;;4.90;89.40;;;;;;5095438;27;20545;-88
2022/01/22 00:10:54;;;;;;;15.27;2.00;;;4.90;89.40;;;;;;5105067;28;20048;-86
2022/01/22 00:16:06;;;;;;;19.17;3.03;;;4.90;89.70;;;;;;5097883;28;20060;-86
2022/01/22 00:18:33;;;;;;;17.02;2.25;;;4.90;89.60;;;;;;5094453;28;20909;-86
2022/01/22 00:21:00;;;;;;;7.63;2.00;;;4.90;89.70;;;;;;5100998;27;20059;-87
2022/01/22 00:23:28;;;;;;;15.98;2.17;;;4.90;89.50;;;;;;5092906;28;20049;-87
2022/01/22 00:25:55;;;;;;;16.83;2.17;;;4.90;89.70;;;;;;5099426;28;20040;-86
2022/01/22 00:28:22;;;;;;;12.65;1.75;;;4.90;89.60;;;;;;5094578;28;20049;-86
2022/01/22 00:30:52;;;;;;;17.52;2.28;;;4.90;90.00;;;;;;5094211;28;20049;-87
2022/01/22 00:33:19;;;;;;;16.45;2.13;;;4.90;89.80;;;;;;5100840;28;20079;-86
2022/01/22 00:35:45;;;;;;;10.48;2.25;;;4.90;90.00;;;;;;5102176;27;20052;-87
2022/01/22 00:38:14;;;;;;;12.95;2.40;;;4.90;90.10;;;;;;5107436;27;20066;-87
2022/01/22 00:40:41;;;;;;;22.13;2.67;;;4.90;90.10;;;;;;5094043;28;20921;-86
2022/01/22 00:43:08;;;;;;;18.58;2.55;;;4.90;90.10;;;;;;5101109;27;20495;-86
2022/01/22 00:45:34;;;;;;;14.00;3.08;;;4.90;90.20;;;;;;5101544;27;20974;-86
2022/01/22 00:48:03;;;;;;;11.65;2.72;;;4.90;90.30;;;;;;5099073;28;20075;-86
2022/01/22 00:50:30;;;;;;;16.15;2.42;;;4.90;90.70;;;;;;5096804;27;20067;-86
2022/01/22 00:52:57;;;;;;;20.33;2.78;;;5.00;90.60;;;;;;5093133;28;20112;-86
2022/01/22 00:55:23;;;;;;;15.60;2.20;;;4.90;90.70;;;;;;5099937;27;20055;-86
2022/01/22 00:57:52;;;;;;;13.75;2.90;;;5.00;90.70;;;;;;5093123;28;20049;-86
2022/01/22 01:00:19;;;;;;;26.00;2.55;;;4.90;90.70;;;;;;5099230;28;20530;-86
2022/01/22 01:02:47;;;;;;;18.27;2.47;;;4.90;90.60;;;;;;5099414;28;20145;-86
2022/01/22 01:05:15;;;;;;;16.70;2.25;;;5.00;90.70;;;;;;5101881;27;20056;-86
2022/01/22 01:07:42;;;;;;;25.08;2.72;;;4.90;90.70;;;;;;5100743;28;20055;-86
2022/01/22 01:10:13;;;;;;;10.70;2.13;;;4.90;90.80;;;;;;5097486;28;20084;-86
2022/01/22 01:12:41;;;;;;;17.85;3.47;;;5.00;90.60;;;;;;5096871;28;20049;-86
2022/01/22 01:34:08;;;;;;;15.65;3.38;;;5.00;91.20;;;;;;5103481;28;20054;-86
2022/01/22 01:36:36;;;;;;;23.20;3.05;;;5.00;91.60;;;;;;5099428;28;20071;-86
2022/01/22 01:39:06;;;;;;;20.80;2.80;;;5.00;91.50;;;;;;5106788;28;20536;-86
2022/01/22 01:41:49;;;;;;;13.18;2.97;;;5.00;91.70;;;;;;5097803;28;20048;-86
2022/01/22 01:44:17;;;;;;;21.05;3.13;;;5.00;91.80;;;;;;5097098;28;20055;-86
2022/01/22 01:46:51;;;;;;;14.23;2.58;;;5.00;91.90;;;;;;5092706;28;20423;-86
2022/01/22 01:49:19;;;;;;;17.88;2.80;;;5.00;92.00;;;;;;5103345;27;20080;-86
2022/01/22 01:51:46;;;;;;;16.05;3.03;;;5.00;92.10;;;;;;5091785;28;20102;-86
2022/01/22 01:59:26;;;;;;;20.77;3.58;;;5.00;92.30;;;;;;5096932;27;20059;-86
2022/01/22 02:01:53;;;;;;;13.88;3.17;;;5.00;92.40;;;;;;5099229;28;20052;-86
2022/01/22 02:04:20;;;;;;;21.33;3.80;;;5.00;92.60;;;;;;5092879;28;20139;-86
2022/01/22 02:06:47;;;;;;;16.85;3.17;;;5.00;92.60;;;;;;5102803;28;20511;-86
2022/01/22 02:09:14;;;;;;;21.15;4.70;;;5.00;92.40;;;;;;5100316;28;20106;-86
2022/01/22 02:11:42;;;;;;;23.30;3.65;;;5.00;92.50;;;;;;5099107;28;20075;-86
2022/01/22 02:25:14;;;;;;;26.02;3.45;;;5.00;92.90;;;;;;5091776;28;20052;-86
2022/01/22 02:27:41;;;;;;;22.83;3.47;;;5.00;92.90;;;;;;5095156;28;20878;-86
2022/01/22 02:30:08;;;;;;;12.15;3.45;;;5.00;93.00;;;;;;5103929;28;20040;-86
2022/01/22 02:35:34;;;;;;;21.30;3.97;;;5.00;93.00;;;;;;5099016;28;20053;-86
2022/01/22 02:38:10;;;;;;;17.58;3.78;;;5.00;93.00;;;;;;5101483;28;20058;-86
2022/01/22 02:40:44;;;;;;;31.15;4.35;;;5.00;93.00;;;;;;5097216;27;20139;-86
2022/01/22 02:43:11;;;;;;;22.95;3.50;;;5.00;93.10;;;;;;5096620;28;20320;-86
2022/01/22 02:45:43;;;;;;;17.05;3.80;;;5.00;93.00;;;;;;5094474;27;20143;-86
2022/01/22 02:48:10;;;;;;;22.17;3.75;;;5.00;93.10;;;;;;5096389;28;20048;-86
2022/01/22 02:50:42;;;;;;;21.17;3.92;;;5.00;92.90;;;;;;5104754;27;20152;-86
2022/01/22 02:53:12;;;;;;;24.38;3.83;;;5.00;93.00;;;;;;5100133;27;20059;-86
2022/01/22 02:55:40;;;;;;;21.10;4.30;;;4.90;93.20;;;;;;5098672;28;20110;-86
2022/01/22 02:58:10;;;;;;;19.90;3.85;;;5.00;93.30;;;;;;5103870;27;20068;-86
2022/01/22 03:00:36;;;;;;;21.52;3.22;;;5.00;93.50;;;;;;5112827;27;20162;-86
2022/01/22 03:03:03;;;;;;;14.30;3.78;;;4.90;93.40;;;;;;5103683;28;20044;-86
2022/01/22 03:05:33;;;;;;;16.50;3.30;;;5.00;93.40;;;;;;5102020;28;20060;-86
2022/01/22 03:08:05;;;;;;;18.13;4.10;;;5.00;93.40;;;;;;5102736;28;20136;-86
2022/01/22 03:10:32;;;;;;;16.83;3.88;;;5.00;93.50;;;;;;5101184;28;20051;-86
2022/01/22 03:17:58;;;;;;;25.88;3.40;;;5.00;93.40;;;;;;5099080;27;20059;-86
2022/01/22 03:21:07;;;;;;;20.15;3.50;;;5.00;93.40;;;;;;5104006;28;20051;-87
2022/01/22 03:28:56;;;;;;;17.27;3.35;;;5.00;93.70;;;;;;5102389;28;22691;-86
2022/01/22 03:31:23;;;;;;;23.60;3.13;;;5.00;93.40;;;;;;5094579;28;20549;-85
2022/01/22 03:33:50;;;;;;;19.52;3.35;;;5.00;93.40;;;;;;5094696;28;20051;-85
2022/01/22 03:36:18;;;;;;;31.60;3.65;;;5.00;93.50;;;;;;5098770;28;20059;-86
2022/01/22 03:38:46;;;;;;;14.68;3.03;;;5.00;93.50;;;;;;5095092;28;20049;-85
2022/01/22 03:41:13;;;;;;;14.68;2.72;;;5.00;93.50;;;;;;5095436;28;20122;-85
2022/01/22 03:43:40;;;;;;;19.25;2.80;;;5.00;93.50;;;;;;5096033;28;20059;-86
2022/01/22 03:46:07;;;;;;;12.80;2.80;;;5.00;93.40;;;;;;5111116;28;20059;-86
2022/01/22 03:48:33;;;;;;;23.08;3.00;;;5.10;93.40;;;;;;5095482;27;20050;-86
2022/01/22 03:51:00;;;;;;;11.20;2.92;;;5.10;93.50;;;;;;5100699;28;20136;-85
2022/01/22 03:53:27;;;;;;;13.65;2.72;;;5.00;93.60;;;;;;5093184;28;20051;-85
2022/01/22 03:56:03;;;;;;;9.95;2.95;;;5.10;93.60;;;;;;5094236;28;20047;-86
2022/01/22 03:58:33;;;;;;;12.00;2.65;;;5.10;93.40;;;;;;5102539;28;20153;-85
2022/01/22 04:03:59;;;;;;;12.80;2.75;;;5.10;93.50;;;;;;5076419;28;20040;-86
2022/01/22 04:08:59;;;;;;;20.88;3.15;;;5.10;93.70;;;;;;5099406;28;20101;-86
2022/01/22 04:11:26;;;;;;;21.13;3.28;;;5.00;93.70;;;;;;5103132;28;20044;-86
2022/01/22 04:13:59;;;;;;;22.42;3.45;;;5.10;93.70;;;;;;5107649;28;20058;-85
2022/01/22 04:16:27;;;;;;;24.13;3.22;;;5.10;93.80;;;;;;5102041;27;20060;-84
2022/01/22 04:27:13;;;;;;;15.02;3.50;;;5.10;93.60;;;;;;5099850;28;20080;-85
2022/01/22 04:29:40;;;;;;;14.38;2.72;;;5.10;93.60;;;;;;5097703;28;20036;-85
2022/01/22 04:32:07;;;;;;;16.80;3.15;;;5.10;93.60;;;;;;5098589;27;20179;-86
2022/01/22 04:34:34;;;;;;;25.33;3.92;;;5.10;93.50;;;;;;5095155;28;20136;-85
2022/01/22 04:37:01;;;;;;;21.40;3.58;;;5.10;93.60;;;;;;5094530;28;20070;-85
2022/01/22 04:39:28;;;;;;;16.70;3.40;;;5.10;93.60;;;;;;5099114;28;20074;-85
2022/01/22 04:41:56;;;;;;;23.23;3.47;;;5.10;93.60;;;;;;5104332;28;20052;-85
2022/01/22 04:44:27;;;;;;;20.48;3.17;;;5.10;93.50;;;;;;5106138;28;20799;-86
2022/01/22 04:54:58;;;;;;;19.00;3.40;;;5.10;93.50;;;;;;5109857;28;20058;-86
2022/01/22 04:57:36;;;;;;;21.30;3.65;;;5.10;93.50;;;;;;5106529;28;20091;-86
2022/01/22 05:00:10;;;;;;;12.73;3.20;;;5.10;93.50;;;;;;5102788;28;20136;-85
2022/01/22 05:02:36;;;;;;;21.05;3.67;;;5.10;93.50;;;;;;5100382;28;20051;-86
2022/01/22 05:05:05;;;;;;;14.77;3.90;;;5.10;93.60;;;;;;5103184;28;20109;-85
2022/01/22 05:07:31;;;;;;;24.63;3.80;;;5.10;93.60;;;;;;5095828;27;20045;-85
2022/01/22 05:09:58;;;;;;;18.27;3.90;;;5.10;93.70;;;;;;5100077;28;20055;-85
2022/01/22 05:12:25;;;;;;;23.58;4.25;;;5.10;93.80;;;;;;5099215;28;20802;-86
2022/01/22 05:14:52;;;;;;;19.58;3.95;;;5.10;93.80;;;;;;5103771;28;20049;-85
2022/01/22 05:17:19;;;;;;;19.58;4.22;;;5.10;93.90;;;;;;5095482;28;20105;-86
2022/01/22 05:20:06;;;;;;;21.60;4.00;;;5.10;93.90;;;;;;5097126;27;20051;-86
2022/01/22 05:22:49;;;;;;;19.58;3.78;;;5.10;94.00;;;;;;5094864;28;20144;-86
2022/01/22 05:25:22;;;;;;;15.63;4.10;;;5.10;94.10;;;;;;5094320;27;20057;-86
2022/01/22 05:38:24;;;;;;;18.90;4.05;;;5.10;94.40;;;;;;5106856;28;20060;-86
2022/01/22 05:40:51;;;;;;;21.70;4.38;;;5.10;94.40;;;;;;5093623;27;20059;-86
2022/01/22 05:43:17;;;;;;;19.10;3.95;;;5.10;94.40;;;;;;5098096;27;20048;-86
2022/01/22 05:45:44;;;;;;;29.40;4.07;;;5.10;94.40;;;;;;5096735;28;20134;-86
2022/01/22 05:48:11;;;;;;;26.63;4.30;;;5.20;94.40;;;;;;5093113;28;20055;-86
2022/01/22 05:51:00;;;;;;;19.40;4.38;;;5.10;94.50;;;;;;5098926;28;20177;-85
2022/01/22 05:53:39;;;;;;;18.67;4.22;;;5.20;94.40;;;;;;5097066;28;20072;-86
2022/01/22 06:01:20;;;;;;;18.15;4.40;;;5.20;94.70;;;;;;5092456;28;20053;-86
2022/01/22 06:03:47;;;;;;;24.35;4.25;;;5.20;94.70;;;;;;5103097;28;20086;-86
2022/01/22 06:06:14;;;;;;;18.85;4.07;;;5.20;94.60;;;;;;5097962;27;20163;-86
2022/01/22 06:08:48;;;;;;;22.05;4.28;;;5.20;94.60;;;;;;5092902;28;20474;-86
2022/01/22 06:11:21;;;;;;;14.60;3.55;;;5.20;94.60;;;;;;5099624;28;20136;-86
2022/01/22 06:13:48;;;;;;;;;;;5.30;94.60;;;;;;5098796;28;20155;-86
2022/01/22 06:16:18;;;;;;;17.38;4.38;;;5.30;94.70;;;;;;5092819;28;19925;-86
2022/01/22 06:18:46;;;;;;;20.92;4.20;;;5.30;94.70;;;;;;5103549;28;20554;-86
2022/01/22 06:21:13;;;;;;;16.45;4.18;;;5.30;94.80;;;;;;5094538;28;20512;-86
2022/01/22 06:23:40;;;;;;;20.05;3.70;;;5.30;94.70;;;;;;5105354;27;20072;-86
2022/01/22 06:26:08;;;;;;;18.33;4.15;;;5.30;94.70;;;;;;5092475;28;20063;-86
2022/01/22 06:28:35;;;;;;;15.85;3.78;;;5.40;94.60;;;;;;5097732;28;20776;-86
2022/01/22 06:31:02;;;;;;;14.93;3.70;;;5.40;94.50;;;;;;5091929;28;20055;-86
2022/01/22 06:33:29;;;;;;;20.50;3.63;;;5.40;94.40;;;;;;5107192;28;20076;-86
2022/01/22 06:35:56;;;;;;;14.63;3.67;;;5.40;94.40;;;;;;5103908;28;20040;-86
2022/01/22 06:38:23;;;;;;;19.13;4.40;;;5.40;94.40;;;;;;5101024;28;20052;-86
2022/01/22 06:43:35;;;;;;;17.75;4.10;;;5.40;94.40;;;;;;5113483;28;20049;-86
2022/01/22 06:46:04;;;;;;;14.07;4.13;;;5.40;94.30;;;;;;5099285;28;20476;-86
2022/01/22 06:48:37;;;;;;;21.25;4.18;;;5.40;94.30;;;;;;5102682;28;20053;-86
2022/01/22 06:51:07;;;;;;;24.93;4.70;;;5.40;94.40;;;;;;5103224;28;20527;-86
2022/01/22 06:53:40;;;;;;;24.27;4.57;;;5.40;94.40;;;;;;5102348;28;20048;-86
2022/01/22 06:56:18;;;;;;;17.00;3.95;;;5.40;94.40;;;;;;5100747;28;20055;-86
2022/01/22 06:58:49;;;;;;;23.45;4.10;;;5.40;94.40;;;;;;5102427;28;20056;-86
2022/01/22 07:01:28;;;;;;;22.65;4.45;;;5.40;94.20;;;;;;5099053;28;22006;-86
2022/01/22 07:03:57;;;;;;;20.63;4.57;;;5.40;94.20;;;;;;5098618;27;20814;-86
2022/01/22 07:06:24;;;;;;;17.73;5.10;;;5.40;94.20;;;;;;5107022;28;20059;-86
2022/01/22 07:09:00;;;;;;;16.00;4.82;;;5.40;94.10;;;;;;5101221;27;20798;-86
2022/01/22 07:11:32;;;;;;;20.27;4.53;;;5.40;94.10;;;;;;5102562;28;20522;-86
2022/01/22 07:14:03;;;;;;;19.25;4.90;;;5.40;94.10;;;;;;5106078;28;20036;-86
2022/01/22 07:16:32;;;;;;;20.08;3.67;;;5.40;94.00;;;;;;5113088;28;20044;-86
2022/01/22 07:19:01;;;;;;;21.63;3.33;;;5.40;94.00;;;;;;5112038;28;20086;-86
2022/01/22 07:21:32;;;;;;;9.95;2.38;;;5.40;94.00;;;;;;5101049;28;20118;-86
2022/01/22 07:26:32;;;;;;;11.32;2.63;;;5.40;93.90;;;;;;5128884;27;20048;-86
2022/01/22 07:28:59;;;;;;;10.40;2.30;;;5.40;93.90;;;;;;5121117;27;20082;-86
2022/01/22 07:31:27;;;;;;;16.70;3.25;;;5.40;93.70;;;;;;5122564;27;20719;-87
2022/01/22 07:33:54;;;;;;;19.20;3.03;;;5.40;93.60;;;;;;5124042;28;20069;-86
2022/01/22 07:36:21;;;;;;;8.38;2.10;;;5.40;93.60;;;;;;5116645;27;20043;-86
2022/01/22 07:38:48;;;;;;;12.15;2.15;;;5.50;93.50;;;;;;5128342;28;20042;-87
2022/01/22 07:41:18;;;;;;;12.23;2.50;;;5.50;93.50;;;;;;5117760;27;20129;-86
2022/01/22 07:43:45;;;;;;;13.90;2.60;;;5.50;93.50;;;;;;5101156;27;20092;-86
2022/01/22 07:46:12;;;;;;;13.95;2.35;;;5.50;93.40;;;;;;5109175;28;20103;-86
2022/01/22 07:48:39;;;;;;;21.40;2.83;;;5.50;93.30;;;;;;5094544;28;20585;-86
2022/01/22 07:51:05;;;;;;;10.50;2.00;;;5.50;93.30;;;;;;5099315;28;20046;-86
2022/01/22 07:53:32;;;;;;;13.70;2.25;;;5.50;93.20;;;;;;5094601;28;20507;-86
2022/01/22 07:55:59;;;;;;;15.63;1.85;;;5.50;93.20;;;;;;5097141;28;20047;-86
2022/01/22 07:58:28;;;;;;;14.90;2.70;;;5.50;93.10;;;;;;5101542;28;20144;-86
2022/01/22 08:00:55;;;;;;;11.98;2.25;;;5.50;93.10;;;;;;5100843;28;20053;-86
2022/01/22 08:03:24;;;;;;;12.50;2.38;;;5.50;93.00;;;;;;5102652;27;20862;-86
2022/01/22 08:05:50;;;;;;;12.70;2.00;;;5.50;92.60;;;;;;5105720;27;20143;-86
2022/01/22 08:08:17;;;;;;;18.40;2.15;;;5.60;92.20;;;;;;5101001;28;20102;-86
2022/01/22 08:10:44;;;;;;;14.50;2.30;;;5.60;92.10;;;;;;5098828;28;20057;-87
2022/01/22 08:13:11;;;;;;;11.00;2.22;;;5.60;92.00;;;;;;5093695;28;20084;-86
2022/01/22 08:15:37;;;;;;;8.93;2.00;;;5.60;92.10;;;;;;5094218;28;20048;-86
2022/01/22 08:18:06;;;;;;;12.18;2.22;;;5.60;92.00;;;;;;5103391;28;20860;-86
2022/01/22 08:20:35;;;;;;;10.80;2.10;;;5.70;91.80;;;;;;5100650;27;20056;-86
2022/01/22 08:23:02;;;;;;;14.73;2.25;;;5.70;91.90;;;;;;5105907;27;20056;-86
2022/01/22 08:25:31;;;;;;;13.13;2.05;;;5.70;91.50;;;;;;5101504;28;20059;-86
2022/01/22 08:30:29;;;;;;;9.45;2.00;;;5.70;91.70;;;;;;5100282;28;20142;-86
2022/01/22 08:35:54;;;;;;;10.05;1.95;;;5.70;91.60;;;;;;5094594;28;20772;-86
2022/01/22 08:38:30;;;;;;;9.50;1.35;;;5.80;91.70;;;;;;5097629;28;20101;-86
2022/01/22 08:40:57;;;;;;;8.43;2.13;;;5.80;91.80;;;;;;5094955;28;20048;-86
2022/01/22 08:43:25;;;;;;;10.32;2.28;;;5.80;91.90;;;;;;5103142;27;20059;-86
2022/01/22 08:45:53;;;;;;;9.65;1.55;;;5.80;91.80;;;;;;5098012;28;20106;-86
2022/01/22 08:48:21;;;;;;;9.80;1.52;;;5.80;91.90;;;;;;5098954;28;20052;-86
2022/01/22 08:50:48;;;;;;;9.55;2.00;;;5.80;91.90;;;;;;5096306;28;20053;-85
2022/01/22 08:53:35;;;;;;;10.90;1.88;;;5.80;91.80;;;;;;5104224;28;20052;-86
2022/01/22 08:56:02;;;;;;;10.63;1.70;;;5.90;91.80;;;;;;5101415;27;20112;-85
2022/01/22 08:58:29;;;;;;;8.25;1.60;;;5.90;91.80;;;;;;5098430;27;20053;-86
2022/01/22 09:00:56;;;;;;;12.18;2.30;;;5.90;91.70;;;;;;5093392;28;20129;-86
2022/01/22 09:03:25;;;;;;;10.95;1.83;;;5.90;91.60;;;;;;5098408;28;20059;-86
2022/01/22 09:05:53;;;;;;;12.05;1.95;;;5.90;91.60;;;;;;5093328;28;20056;-86
2022/01/22 09:08:21;;;;;;;12.23;1.92;;;5.90;91.70;;;;;;5092365;28;20135;-87
2022/01/22 09:10:48;;;;;;;8.82;1.73;;;6.00;91.70;;;;;;5103036;28;20088;-86
2022/01/22 09:13:14;;;;;;;13.68;2.20;;;5.90;91.50;;;;;;5099982;28;20144;-86
2022/01/22 09:15:41;;;;;;;17.25;2.67;;;6.00;91.40;;;;;;5112008;28;20048;-86
2022/01/22 09:18:08;;;;;;;8.32;1.60;;;6.00;91.30;;;;;;5095031;28;20087;-86
2022/01/22 09:23:07;;;;;;;9.15;2.08;;;6.00;91.00;;;;;;5102624;27;20618;-86
2022/01/22 09:25:34;;;;;;;11.85;2.63;;;6.00;91.30;;;;;;5093070;28;20126;-86
2022/01/22 09:28:04;;;;;;;14.25;2.47;;;6.00;91.30;;;;;;5103791;28;20048;-86
2022/01/22 09:30:31;;;;;;;9.48;2.25;;;6.10;91.20;;;;;;5116839;27;20074;-86
2022/01/22 09:32:58;;;;;;;10.77;2.00;;;6.10;91.10;;;;;;5100227;28;20131;-86
2022/01/22 09:35:25;;;;;;;7.10;2.60;;;6.10;91.00;;;;;;5105246;28;20046;-86
2022/01/22 09:37:52;;;;;;;14.70;2.47;;;6.10;90.90;;;;;;5103608;27;20786;-86
2022/01/22 09:40:18;;;;;;;9.48;2.20;;;6.10;91.00;;;;;;5102531;28;20052;-87
2022/01/22 09:42:45;;;;;;;13.43;2.30;;;6.10;91.00;;;;;;5098394;28;20056;-87
2022/01/22 09:45:17;;;;;;;22.70;3.63;;;6.10;91.10;;;;;;5093204;28;20052;-87
2022/01/22 09:47:46;;;;;;;13.35;3.13;;;6.20;91.10;;;;;;5092572;28;20056;-86
2022/01/22 09:50:13;;;;;;;12.88;3.17;;;6.20;91.10;;;;;;5090244;28;20080;-87
2022/01/22 09:52:43;;;;;;;15.18;3.80;;;6.20;90.80;;;;;;5100310;28;20053;-86
2022/01/22 09:55:10;;;;;;;12.55;4.00;;;6.20;90.90;;;;;;5097142;28;20086;-86
2022/01/22 09:57:38;;;;;;;15.27;4.53;;;6.20;90.50;;;;;;5104495;28;20052;-86
2022/01/22 10:00:10;;;;;;;16.95;4.45;;;6.30;90.50;;;;;;5092217;28;20040;-86
2022/01/22 10:02:42;;;;;;;18.10;6.88;;;6.20;90.60;;;;;;5093563;28;20431;-87
2022/01/22 10:05:29;;;;;;;20.30;6.82;;;6.30;90.60;;;;;;5095963;28;20495;-86
2022/01/22 10:08:38;;;;;;;19.00;7.13;;;6.30;90.40;;;;;;5101771;28;20074;-86
2022/01/22 10:11:16;;;;;;;26.98;8.18;;;6.30;90.10;;;;;;5062354;28;20092;-86
2022/01/22 10:13:45;;;;;;;27.00;7.03;;;6.30;90.20;;;;;;5059797;28;20236;-86
2022/01/22 10:16:15;;;;;;;17.95;7.13;;;6.30;90.00;;;;;;5056894;28;20059;-86
2022/01/22 10:18:43;;;;;;;20.33;7.00;;;6.40;89.90;;;;;;5052842;28;20531;-86
2022/01/22 10:21:12;;;;;;;20.55;7.43;;;6.30;90.00;;;;;;5052333;28;20135;-86
2022/01/22 10:23:39;;;;;;;18.08;6.43;;;6.40;90.00;;;;;;5059223;28;20132;-85
2022/01/22 10:26:13;;;;;;;17.48;8.05;;;6.40;89.70;;;;;;5043848;28;20045;-85
2022/01/22 10:28:44;;;;;;;19.10;6.97;;;6.40;89.80;;;;;;5067805;28;20045;-86
2022/01/22 10:31:20;;;;;;;24.90;7.70;;;6.40;89.50;;;;;;5041901;28;20063;-86
2022/01/22 10:34:11;;;;;;;20.10;7.95;;;6.40;90.00;;;;;;5061604;28;20141;-86
2022/01/22 10:36:55;;;;;;;19.38;7.63;;;6.40;89.90;;;;;;5037753;28;20041;-86
2022/01/22 10:39:34;;;;;;;23.95;8.50;;;6.40;90.00;;;;;;5062487;28;20516;-86
2022/01/22 10:42:23;;;;;;;15.65;5.40;;;6.40;89.30;;;;;;5069213;28;20045;-85
2022/01/22 10:44:56;;;;;;;17.23;5.00;;;6.40;88.00;;;;;;5098040;27;20566;-86
2022/01/22 10:47:28;;;;;;;16.48;5.68;;;6.40;88.20;;;;;;5102696;28;20826;-86
2022/01/22 10:50:20;;;;;;;17.02;5.78;;;6.40;88.10;;;;;;5105073;28;20139;-86
2022/01/22 10:52:52;;;;;;;13.25;5.97;;;6.40;88.50;;;;;;5101709;28;20059;-86
2022/01/22 10:55:24;;;;;;;15.85;6.13;;;6.40;88.70;;;;;;5100088;28;20045;-86
2022/01/22 10:58:10;;;;;;;14.50;5.50;;;6.50;88.70;;;;;;5104543;27;20071;-85
2022/01/22 11:00:39;;;;;;;17.88;6.05;;;6.50;88.80;;;;;;5101950;27;20051;-86
2022/01/22 11:03:23;;;;;;;12.15;5.50;;;6.50;88.10;;;;;;5106815;28;20072;-86
2022/01/22 11:05:52;;;;;;;17.85;5.85;;;6.60;88.70;;;;;;5107336;27;20048;-85
2022/01/22 11:08:23;;;;;;;15.25;5.53;;;6.50;88.50;;;;;;5103029;27;20052;-86
2022/01/22 11:10:50;;;;;;;12.15;4.53;;;6.60;88.70;;;;;;5101477;28;20052;-86
2022/01/22 11:13:22;;;;;;;12.20;4.97;;;6.60;88.70;;;;;;5096585;28;20096;-85
2022/01/22 11:15:50;;;;;;;11.38;4.30;;;6.60;88.50;;;;;;5102685;28;20078;-85
2022/01/22 11:18:23;;;;;;;10.20;4.20;;;6.60;88.20;;;;;;5101777;28;20049;-86
2022/01/22 11:20:58;;;;;;;13.00;4.10;;;6.60;88.00;;;;;;5108736;28;20853;-86
2022/01/22 11:23:28;;;;;;;10.60;3.80;;;6.60;87.60;;;;;;5103600;28;20036;-85
2022/01/22 11:25:55;;;;;;;14.52;4.00;;;6.60;87.70;;;;;;5096055;28;20057;-85
2022/01/22 11:28:26;;;;;;;13.85;3.78;;;6.60;87.80;;;;;;5102124;28;20049;-85
2022/01/22 11:31:03;;;;;;;9.40;3.25;;;6.60;87.60;;;;;;5101243;28;20048;-85
2022/01/22 11:33:33;;;;;;;10.35;3.65;;;6.60;87.70;;;;;;5106377;27;20048;-86
2022/01/22 11:36:13;;;;;;;12.15;3.83;;;6.60;88.10;;;;;;5103605;28;20052;-86
2022/01/22 11:38:47;;;;;;;17.40;4.32;;;6.60;87.90;;;;;;5100549;28;20114;-86
2022/01/22 11:41:24;;;;;;;11.75;4.25;;;6.60;87.40;;;;;;5095534;27;20045;-85
2022/01/22 11:47:14;;;;;;;13.07;4.40;;;6.60;87.60;;;;;;5100937;28;20091;-85
2022/01/22 11:50:09;;;;;;;9.80;4.80;;;6.60;87.50;;;;;;5099411;28;20056;-86
2022/01/22 11:52:41;;;;;;;18.55;5.00;;;6.60;87.80;;;;;;5099475;28;20052;-86
2022/01/22 11:55:23;;;;;;;10.73;4.82;;;6.60;87.70;;;;;;5094894;28;20052;-85
2022/01/22 11:58:05;;;;;;;9.50;5.18;;;6.60;87.80;;;;;;5098035;28;20106;-86
2022/01/22 12:00:39;;;;;;;;;;;6.60;87.80;;;;;;5099315;28;20052;-85
2022/01/22 12:03:09;;;;;;;17.42;5.70;;;6.60;87.80;;;;;;5105490;28;19962;-85
2022/01/22 12:05:58;;;;;;;12.70;5.03;;;6.70;87.90;;;;;;5098291;28;20048;-86
2022/01/22 12:08:25;;;;;;;17.63;5.32;;;6.70;88.00;;;;;;5101891;28;20045;-85
2022/01/22 12:16:40;;;;;;;14.93;5.15;;;6.70;87.70;;;;;;5100155;28;21015;-86
2022/01/22 12:19:36;;;;;;;13.85;4.82;;;6.80;87.70;;;;;;5099659;28;20048;-86
2022/01/22 12:22:28;;;;;;;19.67;4.90;;;6.80;87.70;;;;;;5102815;28;20810;-86
2022/01/22 12:25:02;;;;;;;12.77;4.72;;;6.90;87.50;;;;;;5093917;28;20060;-86
2022/01/22 12:28:07;;;;;;;16.63;4.80;;;6.90;87.40;;;;;;5095325;28;20118;-86
2022/01/22 12:31:10;;;;;;;21.00;5.20;;;6.90;87.60;;;;;;5063376;28;20091;-85
2022/01/22 12:33:48;;;;;;;14.88;4.78;;;7.00;87.60;;;;;;5065000;28;20048;-86
2022/01/22 12:36:39;;;;;;;15.98;4.75;;;7.00;87.40;;;;;;5062927;28;20100;-86
2022/01/22 12:39:16;;;;;;;15.18;3.92;;;7.00;87.50;;;;;;5068875;28;20057;-86
2022/01/22 12:41:58;;;;;;;13.10;4.20;;;7.00;87.40;;;;;;5063685;28;20539;-86
2022/01/22 12:44:29;;;;;;;10.60;3.60;;;7.10;87.30;;;;;;5053213;28;20055;-86
2022/01/22 12:47:11;;;;;;;10.82;3.55;;;7.10;87.30;;;;;;5059880;28;20084;-86
2022/01/22 12:50:01;;;;;;;8.20;3.33;;;7.10;86.90;;;;;;5064368;28;20056;-85
2022/01/22 12:52:33;;;;;;;10.00;2.90;;;7.10;87.10;;;;;;5062884;28;20049;-85
2022/01/22 12:55:01;;;;;;;11.88;3.05;;;7.10;86.70;;;;;;5069637;28;20049;-85
2022/01/22 12:57:51;;;;;;;8.95;2.78;;;7.10;86.90;;;;;;5063672;28;20057;-86
2022/01/22 13:00:21;;;;;;;10.98;2.85;;;7.10;86.40;;;;;;5058420;28;20511;-86
2022/01/22 13:02:51;;;;;;;9.85;2.85;;;7.10;86.20;;;;;;5064236;28;20061;-86
2022/01/22 13:05:22;;;;;;;13.30;3.10;;;7.10;86.30;;;;;;5098396;28;20127;-86
2022/01/22 13:08:07;;;;;;;11.15;3.05;;;7.10;86.20;;;;;;5103560;28;20104;-85
2022/01/22 13:10:43;;;;;;;7.85;3.03;;;7.10;86.10;;;;;;5093228;27;20048;-85
2022/01/22 13:13:22;;;;;;;13.68;3.17;;;7.10;85.60;;;;;;5095321;28;20132;-86
2022/01/22 13:16:07;;;;;;;11.63;3.13;;;7.10;85.60;;;;;;5095976;27;20052;-86
2022/01/22 13:18:46;;;;;;;11.45;3.72;;;7.10;85.90;;;;;;5093838;28;20057;-85
2022/01/22 13:21:15;;;;;;;9.15;3.25;;;7.20;85.70;;;;;;5102195;28;20059;-86
2022/01/22 13:23:42;;;;;;;9.13;3.38;;;7.20;85.20;;;;;;5101278;28;20070;-86
2022/01/22 13:26:10;;;;;;;11.73;3.90;;;7.10;85.90;;;;;;5102414;28;20798;-84
2022/01/22 13:28:38;;;;;;;10.00;3.70;;;7.10;85.60;;;;;;5101829;28;20130;-84
2022/01/22 13:31:17;;;;;;;14.98;4.05;;;7.10;86.10;;;;;;5106976;28;20852;-86
2022/01/22 13:33:55;;;;;;;10.70;3.78;;;7.20;85.90;;;;;;5092803;28;20107;-85
2022/01/22 13:36:46;;;;;;;8.20;4.07;;;7.20;85.60;;;;;;5098572;28;20056;-85
2022/01/22 13:47:54;;;;;;;12.93;4.63;;;7.10;85.50;;;;;;5103677;28;20051;-85
2022/01/22 13:50:21;;;;;;;9.32;4.43;;;7.10;85.60;;;;;;5108715;27;20056;-86
2022/01/22 13:52:55;;;;;;;14.48;4.68;;;7.10;85.70;;;;;;5103945;28;20786;-86
2022/01/22 13:55:25;;;;;;;15.32;5.10;;;7.10;85.30;;;;;;5094789;27;20126;-86
2022/01/22 13:58:04;;;;;;;13.40;5.20;;;7.00;85.30;;;;;;5093324;28;20061;-85
2022/01/22 14:00:32;;;;;;;15.30;5.15;;;7.10;85.80;;;;;;5094242;28;20547;-86
2022/01/22 14:05:53;;;;;;;14.00;5.15;;;7.00;85.40;;;;;;5098793;27;20095;-86
2022/01/22 14:08:33;;;;;;;20.23;5.68;;;7.00;85.60;;;;;;5096947;28;20059;-86
2022/01/22 14:11:13;;;;;;;14.32;5.38;;;7.00;85.30;;;;;;5094381;28;20060;-85
2022/01/22 14:13:40;;;;;;;15.07;5.20;;;7.00;85.60;;;;;;5096296;28;20048;-87
2022/01/22 14:16:22;;;;;;;15.95;4.95;;;7.00;85.90;;;;;;5105129;27;20052;-86
2022/01/22 14:18:57;;;;;;;21.70;5.78;;;7.00;85.60;;;;;;5107199;27;20051;-86
2022/01/22 14:21:26;;;;;;;13.57;5.55;;;6.90;85.60;;;;;;5093863;27;20107;-86
2022/01/22 14:23:55;;;;;;;13.85;5.13;;;6.90;85.70;;;;;;5096768;28;20807;-86
2022/01/22 14:26:35;;;;;;;16.52;6.15;;;6.90;85.60;;;;;;5097769;28;20076;-86
2022/01/22 14:29:14;;;;;;;15.32;5.13;;;6.90;85.40;;;;;;5092682;28;20106;-86
2022/01/22 14:31:57;;;;;;;18.30;5.15;;;6.90;85.70;;;;;;5101017;28;20052;-86
2022/01/22 14:34:56;;;;;;;19.38;5.25;;;6.90;85.70;;;;;;5090755;28;20053;-86
2022/01/22 14:37:30;;;;;;;13.15;5.18;;;6.90;85.50;;;;;;5100527;28;20139;-86
2022/01/22 14:45:57;;;;;;;13.38;5.00;;;6.80;85.90;;;;;;5097782;28;20067;-85
2022/01/22 14:48:28;;;;;;;16.20;5.40;;;6.80;85.50;;;;;;5108413;28;20080;-85
2022/01/22 14:50:57;;;;;;;15.57;6.43;;;6.80;85.70;;;;;;5116154;28;20045;-87
2022/01/22 14:53:24;;;;;;;20.17;5.88;;;6.80;85.80;;;;;;5114320;27;20829;-85
2022/01/22 14:55:59;;;;;;;14.70;5.10;;;6.80;85.80;;;;;;5132369;28;20110;-86
2022/01/22 14:58:26;;;;;;;17.63;5.72;;;6.80;85.90;;;;;;5125675;28;20025;-86
2022/01/22 15:01:03;;;;;;;13.50;5.50;;;6.70;86.10;;;;;;5125467;28;20059;-86
2022/01/22 15:03:35;;;;;;;14.40;5.70;;;6.80;86.10;;;;;;5121525;27;20060;-86
2022/01/22 15:06:02;;;;;;;16.70;6.07;;;6.80;85.70;;;;;;5105168;28;20135;-86
2022/01/22 15:08:31;;;;;;;16.13;6.18;;;6.80;86.00;;;;;;5104453;28;20052;-86
2022/01/22 15:11:01;;;;;;;16.10;6.35;;;6.70;86.30;;;;;;5096866;28;20049;-86
2022/01/22 15:13:31;;;;;;;17.27;6.00;;;6.70;86.20;;;;;;5093982;28;20503;-86
2022/01/22 15:16:10;;;;;;;19.40;5.95;;;6.70;85.90;;;;;;5098408;28;20113;-86
2022/01/22 15:21:13;;;;;;;19.02;6.28;;;6.70;86.10;;;;;;5101167;27;20166;-86